< < Back
Terminal Aerodrome Forecast


Current Version              Previous Versions:   1  2  3  4  5  6  7  8  9  

Terminal Aerodrome Forecast

538
FTUS42 KFFC 021100
TAFCSG
TAF
KCSG 021131Z 0212/0312 00000KT P6SM FEW150
     FM021400 VRB03KT P6SM SCT030 SCT150
     FM021800 28004KT P6SM BKN045
      TEMPO 0218/0222 VRB15G30KT 5SM TSRA BKN045CB
     FM030200 00000KT P6SM SCT050 BKN120=

Latest METAR

199
SAUS70 KWBC 021154
MTRCSG
METAR KCSG 021151Z AUTO 00000KT 10SM CLR 23/22 A3011 RMK AO2 SLP190
70014 T02280217 10239 20228 53017


USA.gov is the U.S. government's official web portal to all federal, state and local government web resources and services.